Timeline UpdatesTrip UpdatesNews PostsPvt Posts♥♥Travel TipsAdmin PostsConv PostsFollowed PostsChat RequestsBlog PostsPNR Posts

Disclaimer
Search
 
 
Fri Oct 31, 2014 10:24:00 ISTHomeTrainsΣChainsAtlasPNRForumGalleryNewsFAQTripsMembersLoginFeedback
No Recent News for this Train
Other Trains in the News **new
Latest...
.
Wed Feb 26, 2014 (11:14AM)
⇐ Return Journey: Train# 11077

11078/Jhelum Express

Time-Table HAS CHANGED.
Sep 09 2014 (11:25PM)
Change Departure Station:
Change Arrival Station:
Post a Train Travel TipPost a Train Travel Tip **new
Post a Comment/Question/Picture/VideoPost a Comment/Question/Picture/Video
Inaugural Run
Sat Jan 01, 1977
Pantry/Catering
✓ Pantry Car Avbl
✓ Catering Avbl
Loco/Rake Reversals
DD/Daund Junction (7);
RSA - Rake Sharing
No RSA.
Rake/Coach Composition
Loco, LDS, UR, A1, A2, B1, B2, B3, B4,B5 S1, PC, S2, S3, S4, S5, S6, S7, S8, S9, S10, UR, UR, MLTY (JAT-DD);
Loco
JAT-LDH=>LDH WDM3A/ TWIN LDH WDM3A LDH-MMR=> GZB/BSL WAP-4 MMR-PUNE=>PUNE WDP4D
News    PNR    Forum    Time-Table    Availability    Fare Chart    Map    Arr/Dep History    Trips    Gallery    ΣChains    X/O    Timeline    
Travel Time: 28h 55m    36 halts    Distance: 1599 km    Avg Speed: 55 km/hr
Type: Mail/Express
Zone: CR/Central
Departs @ 10:15 (Avg 21m late)
Platform# 4
SMTWTFS
New Delhi/NDLS 
Arrives @ 15:10 +1 night (Avg 1h 6m late)
Platform# 3
SMTWTFS
Pune Junction/PUNE 

36 halts. 217 intermediate Stations between New Delhi and Pune Junction

Show ALL intermediate Stations  Show Old Time-Table

#TrkCodeStation NameX/OArrivesAvgDepartsAvgHaltPFDay#KmSpeedElevZoneAddress
1/--/JATJammu Tawi (3)  -21:45+2711-576.771337mNRJammu 180002, Jammu and Kashmir
2/--/VJPJVijaypur Jammu (2)  22:03+3622:05+362m21-555.546353mNRdistt. samba, Jammu and Kashmir
3/--/SMBXSamba (2)  22:20+4122:22+412m11-544.163365mNRDist. Samba, Jammu and Kashmir
4/--/HRNRHira Nagar (2)  22:36+4522:38+442m21-529.364380mNRHiranagar, Jammu and Kashmir
5/--/KTHUKathua (2)  23:05+4823:07+482m21-500.442396mNRdistt. kathua, Jammu and Kashmir
6/--/PTKCPathankot Cantt (3)  23:40+4823:45+485m11-477.357328mNRPathankot By Pass Ph:0186-2251594, Punjab
7/--/MEXMukerian (3)X  00:27+4000:29+402m12-437.553257mNRMukerian distt. hosiharpur, Punjab
8/--/DZADasuya (2)  00:46+3900:48+392m12-422.466251mNRDasuya distt. hoshiarpur, Punjab
9/--/JRCJalandhar Cantt. Junction (3)X  01:40+3301:45+335m32-364.854239mNRNear Rama Mandi, Punjab
10/==/PGWPhagwara Junction (3)X  02:03+3002:05+302m12-348.539245mNRPhagwara, Punjab
11/==/LDHLudhiana Junction (7)X02:50 03:00+1203:00 03:10+2410m52-312.849246mNRLudhiana 141001, Punjab
12/==/KNNKhanna (3)X  03:57 04:02+2403:59 04:04+242m22-270.067269mNRNH 1, Punjab
13/==/SIRSirhind Junction (3)XO  04:15 04:20+2304:27 04:32+1712m22-252.188271mNRSirhind, Punjab
14/==/RPJRajpura Junction (3)XO  04:49+1904:51+212m22-227.359272mNRNH-1, Punjab
15/==/UBCAmbala City (3)X  05:12+1805:14+192m12-206.817273mNRNH-1, Haryana
16/==/UMBAmbala Cantt. Junction (7)X  05:40+1005:50+910m22-199.263278mNRAmbala 133001, Haryana
17/==/SHDMShahbad Markanda (2)X  06:09+2306:11+232m12-179.358267mNRShahabad Markanda, Haryana
18/==/KKDEKurukshetra Junction (3)  06:34+1806:36+192m22-157.170260mNRKurukshetra, Haryana
19/==/TRRTaraori (2)X  06:54+2206:56+212m--2-136.152255mNRTaraori, Haryana
20/==/KUNKarnal (3)X  07:10+2107:12+202m12-124.066253mNRKarnal, Haryana
21/==/GRAGharaunda (2)  07:28+1807:30+192m--2-106.660244mNRGharaunda, Haryana
22/==/PNPPanipat Junction (5)X  07:47+1807:49+182m22-89.673235mNRPanipat, Haryana
23/==/SMKSamalkha (3)X08:02 08:03+2008:04+212 1m--2-72.657229mNRSamalkha, Haryana
24/==/GNUGanaur  08:16 08:17+2108:18+232 1m--2-60.460222mNRGanaur, Haryana
25/==/SNPSonipat (3)X  08:33 08:34+2408:35+252 1m12-44.557225mNRSonipat, Haryana
26/==/NURNarela (2)X  08:53+2508:55+252m--2-27.441222mNRNarela, Delhi NCT
27/==/SZMDelhi Sabzi Mandi (2)  09:28 09:29+2309:30+252 1m--2-4.110220mNRGulabi Bagh, Delhi NCT
28/==/NDLSNew Delhi (16)»  10:00 09:55+2110:20 10:15+2120m420.060215mNRNew Delhi, Delhi NCT
29/==/FDBFaridabad (4)X  10:51 10:43+2510:53 10:45+242m3228.259206mNRold Faridabad, Haryana
30/==/MTJMathura Junction (10)X  12:40+1712:45+185m12141.376179mNCRMathura, Uttar Pradesh
31/==/RKMRaja Ki Mandi (4)X  13:24+3313:26+342m12191.010170mNCRAgra, Uttar Pradesh
32/==/AGCAgra Cantt. (6)X  13:50+2113:55+285m12195.090174mNCRAgra, Uttar Pradesh
33/==/DHODholpur Junction (3)X  14:30+5114:32+552m22247.670177mNCRDholpur, Rajasthan
34/==/MRAMorena (3)  14:55+1:0114:57+1:062m12274.575176mNCRMorena, Madhya Pradesh
35/==/GWLGwalior Junction (4)X  15:28+1:1615:33+1:185m12313.077214mNCRGwalior, Madhya Pradesh
36/==/DBADabra (3)X  16:06+1:4116:08+1:432m22355.365 NCRDabra(District-Gwalior), Madhya Pradesh
37/==/DAADatia (2)X  16:34 16:36+1:4616:36 16:38+1:462m12385.738264mNCRDatia, Madhya Pradesh
38/==/JHSJhansi Junction (7)X  17:13 17:18+1:3617:23+1:4310 5m32410.861259mNCRJhansi, Uttar Pradesh
39/==/BABBabina (3)  17:46 17:48+1:4917:48 17:50+1:502m22436.293285mNCRBabina, Uttar Pradesh
40/==/LARLalitpur (3)X  18:30 18:32+2:0018:32 18:34+2:002m12501.131373mNCRLalitpur, Uttar Pradesh
41/==/DUADhaura (3)X  19:09 19:28+1:3419:11 19:30+1:362m--2529.459407mNCRDhaura Tanda, Madhya Pradesh
42/==/BINABina Junction (5)X  19:50 20:05+1:4619:55 20:10+1:465m32564.086414mWCRJn Pt - KATNI/GUNA/ BPL/JHS, Madhya Pradesh
43/==/BAQGanj Basoda (4)  20:27 20:42+1:5320:29 20:44+1:552m22609.784 WCRVidisha, Madhya Pradesh
44/==/BHSVidisha (3)X  20:48 21:12+1:5820:50 21:14+2:012m22649.053 WCRVidisha, Madhya Pradesh
45/==/BPLBhopal Junction (6)X  22:00 22:15+1:5022:05 22:20+1:555m12702.538497mWCRBhopal, Madhya Pradesh
46/==/HBJBhopal HabibGanj (5)X  22:15 22:30+2:0222:17 22:32+2:022m42708.870496mWCRHabibGanj, Madhya Pradesh
47/==/HBDHoshangabad (2)XO  23:15 23:30+2:2123:17 23:32+2:222m22776.225308mWCRHoshangabad, Madhya Pradesh
48/==/ETItarsi Junction (7)X  00:01 00:15+2:0400:05 00:20+2:114 5m33794.384329mWCRItarsi 461111, Madhya Pradesh
49/==/BPFBanapura (2)X  00:29 00:44+2:1800:31 00:46+2:212m23827.782314mWCRBanapura, Madhya Pradesh
50/==/HDHarda (3)  01:02 01:17+2:2101:04 01:19+2:212m23870.187289mWCRHarda, Madhya Pradesh
51/==/CAERChhanera (2)  01:48 02:02+2:1301:50 02:04+2:132m23932.336283mWCRChhanera, Madhya Pradesh
52/==/KNWKhandwa Junction (5)O  03:20+1:4803:25+1:485m23977.778310mCRKhandwa, Madhya Pradesh
53/==/BAUBurhanpur (2)  04:18+1:4804:20+1:482m131046.673269mCRBurhanpur, Madhya Pradesh
54/==/BSLBhusaval Junction (8)X  05:05+1:5205:15+1:5410m531101.163208mCRBhusaval 425201, Maharashtra
55/==/JLJalgaon Junction (4)X  05:38+2:0005:40+2:012m231125.2102213mCRJalgaon 425001, Maharashtra
56/==/PCPachora Junction (4)X  06:08+2:1106:10+2:102m231172.996264mCRPachora 424201, Maharashtra
57/==/CSNChalisgaon Junction (3)  06:38+2:1506:40+2:162m331217.790352mCRChalisgaon 424101, Maharashtra
58/==/NGNNandgaon (3)  07:08+2:1907:10+2:192m231259.951476mCRNandgaon, Maharashtra
59/==/MMRManmad Junction (6)07:40+2:1407:50+2:2210m331285.331580mCRManmad 423104, Maharashtra
60/--/KPGKopargaon (2)X  09:13+1:5209:15+1:532m131327.562508mCRKopargaon 423601, Maharashtra
61/--/BAPBelapur (2)X  09:58+1:5610:00+1:572m231372.165541mCRShrirampur, Maharashtra
62/--/ANGAhmadnagar (2)X  11:02+2:0311:05+2:053m131439.246650mCRAhmednagar 414001, Maharashtra
63|-=%DDDaund Junction (7)X12:55+1:4513:10+1:5515m231523.436521mCRNew Daund Dist. Pune 413801, Maharashtra
64%==%URIUruli (2)X  13:48 14:29+1:1513:50 14:30+1:172 1m131570.243553mCRDist. Pune 412202, Maharashtra
65/==/PUNEPune Junction (6)•  14:35 15:10+1:06-331598.9-556mCRPune 411001, Maharashtra
Scroll to Top
Scroll to Bottom